Arvoredo, Brazil

4:22 AM BRST on January 26, 2015 (GMT -0200)
jurere | Change Station
CLOSE
Current Station
Personal Weather Station
Location: Florianópolis, SANTA CATARINA
Elevation: 13 ft
Nearby Weather Stations

Elev 13 ft 27.45 °S, 48.49 °W | Updated 36 seconds ago

Partly Cloudy
Partly Cloudy
75.7 °F
Feels Like 76 °F
N
0.0
Wind Variable Wind from SW
Gusts 0.0 mph

Today
High -- | Low -- °F
--% Chance of Precip.
Yesterday
High -- | Low -- °F
Precip. -- in
6:41 AM 8:10 PM
Waxing Crescent, 40% visible
Pressure 29.83 in
Visibility 6.2 miles
Clouds Few 2500 ft
Heat Index 76 °F
Dew Point 71 °F
Humidity 85%
Rainfall 0.00 in
Snow Depth Not available.
UV 1.0 out of 12
Pollen Not available.
Air Quality Not available.
Flu Activity Not available.
METAR SBFL 260600Z 35006KT 9999 FEW025 24/20 Q1010

More Conditions Fewer Conditions

Pressure 29.83 in
Visibility 6.2 miles
Clouds Few 2500 ft
Heat Index 76 °F
Dew Point 71 °F
Humidity 85%
Rainfall 0.00 in
Snow Depth Not available.
UV 1.0 out of 12
Pollen Not available.
Air Quality Not available.
Flu Activity Not available.
METAR SBFL 260600Z 35006KT 9999 FEW025 24/20 Q1010

More Conditions Fewer Conditions

10-Day Weather Forecast

Almanac

Astronomy

Jan. 26, 2015 Rise Set
Actual Time
Civil Twilight
Nautical Twilight
Astronomical Twilight
Moon
Length of Visible Light
Length of Day
Tomorrow will be .
, % of the Moon is Illuminated

Today's Extremes

Country Highs Country Lows

Community

WunderPhotos

Upload Photos

1,790,157 photos uploaded!

WunderBlogs® & News

Nearby

Air Quality

  Air Quality AQ Index Pollutant
Not available.

Snow Depth

Station Depth Elevation

Earthquake Activity

City Distance Mag. Time & Date
Minimum magnitude displayed is 2.5.

Coastal Water Temperatures

Place Temperature

Nearby Weather Stations